sensor_id;sensor_type;location;lat;lon;timestamp;P1;durP1;ratioP1;P2;durP2;ratioP2
12947;SDS011;6539;49.476;8.484;2023-02-15T00:00:04;61.37;;;26.10;;
12947;SDS011;6539;49.476;8.484;2023-02-15T00:02:36;57.00;;;27.67;;
12947;SDS011;6539;49.476;8.484;2023-02-15T00:05:02;54.40;;;25.03;;
12947;SDS011;6539;49.476;8.484;2023-02-15T00:07:27;58.60;;;28.43;;
12947;SDS011;6539;49.476;8.484;2023-02-15T00:09:53;50.60;;;25.40;;
12947;SDS011;6539;49.476;8.484;2023-02-15T00:12:19;54.40;;;24.50;;
12947;SDS011;6539;49.476;8.484;2023-02-15T00:14:47;51.20;;;24.80;;
12947;SDS011;6539;49.476;8.484;2023-02-15T00:17:13;56.83;;;26.20;;
12947;SDS011;6539;49.476;8.484;2023-02-15T00:19:39;59.70;;;27.93;;
12947;SDS011;6539;49.476;8.484;2023-02-15T00:22:07;58.10;;;24.60;;
12947;SDS011;6539;49.476;8.484;2023-02-15T00:24:33;60.13;;;25.37;;
12947;SDS011;6539;49.476;8.484;2023-02-15T00:26:59;61.57;;;25.40;;
12947;SDS011;6539;49.476;8.484;2023-02-15T00:29:24;51.63;;;25.50;;
12947;SDS011;6539;49.476;8.484;2023-02-15T00:31:55;47.37;;;22.17;;
12947;SDS011;6539;49.476;8.484;2023-02-15T00:34:22;47.67;;;24.60;;
12947;SDS011;6539;49.476;8.484;2023-02-15T00:36:52;54.87;;;24.10;;
12947;SDS011;6539;49.476;8.484;2023-02-15T00:39:20;51.70;;;25.27;;
12947;SDS011;6539;49.476;8.484;2023-02-15T00:41:46;47.00;;;24.67;;
12947;SDS011;6539;49.476;8.484;2023-02-15T00:44:12;52.50;;;25.93;;
12947;SDS011;6539;49.476;8.484;2023-02-15T00:46:41;54.20;;;24.10;;
12947;SDS011;6539;49.476;8.484;2023-02-15T00:49:10;48.23;;;23.83;;
12947;SDS011;6539;49.476;8.484;2023-02-15T00:51:35;51.97;;;23.73;;
12947;SDS011;6539;49.476;8.484;2023-02-15T00:54:04;56.33;;;24.53;;
12947;SDS011;6539;49.476;8.484;2023-02-15T00:56:34;46.07;;;22.40;;
12947;SDS011;6539;49.476;8.484;2023-02-15T00:59:00;50.50;;;23.00;;
12947;SDS011;6539;49.476;8.484;2023-02-15T01:01:26;44.60;;;22.00;;
12947;SDS011;6539;49.476;8.484;2023-02-15T01:03:56;47.53;;;23.03;;
12947;SDS011;6539;49.476;8.484;2023-02-15T01:06:25;48.40;;;22.97;;
12947;SDS011;6539;49.476;8.484;2023-02-15T01:08:50;55.63;;;22.67;;
12947;SDS011;6539;49.476;8.484;2023-02-15T01:11:17;47.37;;;22.47;;
12947;SDS011;6539;49.476;8.484;2023-02-15T01:13:49;48.13;;;21.40;;
12947;SDS011;6539;49.476;8.484;2023-02-15T01:16:22;44.43;;;21.43;;
12947;SDS011;6539;49.476;8.484;2023-02-15T01:18:50;52.10;;;21.90;;
12947;SDS011;6539;49.476;8.484;2023-02-15T01:21:20;47.03;;;21.67;;
12947;SDS011;6539;49.476;8.484;2023-02-15T01:23:49;52.03;;;22.00;;
12947;SDS011;6539;49.476;8.484;2023-02-15T01:26:15;46.93;;;22.30;;
12947;SDS011;6539;49.476;8.484;2023-02-15T01:28:44;42.77;;;21.93;;
12947;SDS011;6539;49.476;8.484;2023-02-15T01:31:15;53.73;;;21.73;;
12947;SDS011;6539;49.476;8.484;2023-02-15T01:33:46;54.17;;;22.73;;
12947;SDS011;6539;49.476;8.484;2023-02-15T01:36:12;49.27;;;22.13;;
12947;SDS011;6539;49.476;8.484;2023-02-15T01:38:41;47.77;;;21.73;;
12947;SDS011;6539;49.476;8.484;2023-02-15T01:41:07;51.43;;;22.50;;
12947;SDS011;6539;49.476;8.484;2023-02-15T01:43:54;50.50;;;23.27;;
12947;SDS011;6539;49.476;8.484;2023-02-15T01:46:24;53.40;;;22.13;;
12947;SDS011;6539;49.476;8.484;2023-02-15T01:49:06;59.93;;;22.60;;
12947;SDS011;6539;49.476;8.484;2023-02-15T01:51:41;51.77;;;24.10;;
12947;SDS011;6539;49.476;8.484;2023-02-15T01:54:12;47.70;;;21.97;;
12947;SDS011;6539;49.476;8.484;2023-02-15T01:56:49;53.97;;;24.27;;
12947;SDS011;6539;49.476;8.484;2023-02-15T01:59:21;51.13;;;22.03;;
12947;SDS011;6539;49.476;8.484;2023-02-15T02:01:54;44.07;;;21.00;;
12947;SDS011;6539;49.476;8.484;2023-02-15T02:04:26;49.87;;;22.23;;
12947;SDS011;6539;49.476;8.484;2023-02-15T02:07:08;50.40;;;21.17;;
12947;SDS011;6539;49.476;8.484;2023-02-15T02:09:39;53.13;;;22.47;;
12947;SDS011;6539;49.476;8.484;2023-02-15T02:12:07;46.93;;;22.23;;
12947;SDS011;6539;49.476;8.484;2023-02-15T02:14:34;53.37;;;21.73;;
12947;SDS011;6539;49.476;8.484;2023-02-15T02:20:42;58.90;;;23.67;;
12947;SDS011;6539;49.476;8.484;2023-02-15T02:23:43;50.03;;;23.97;;
12947;SDS011;6539;49.476;8.484;2023-02-15T02:29:26;50.73;;;22.10;;
12947;SDS011;6539;49.476;8.484;2023-02-15T02:38:11;49.70;;;23.30;;
12947;SDS011;6539;49.476;8.484;2023-02-15T02:50:02;41.97;;;21.70;;
12947;SDS011;6539;49.476;8.484;2023-02-15T02:52:41;46.63;;;21.37;;
12947;SDS011;6539;49.476;8.484;2023-02-15T02:55:29;42.80;;;21.27;;
12947;SDS011;6539;49.476;8.484;2023-02-15T03:00:37;40.03;;;20.00;;
12947;SDS011;6539;49.476;8.484;2023-02-15T03:03:21;45.23;;;21.10;;
12947;SDS011;6539;49.476;8.484;2023-02-15T03:05:59;35.37;;;20.13;;
12947;SDS011;6539;49.476;8.484;2023-02-15T03:08:38;34.33;;;18.30;;
12947;SDS011;6539;49.476;8.484;2023-02-15T03:11:20;31.80;;;18.40;;
12947;SDS011;6539;49.476;8.484;2023-02-15T03:13:46;35.43;;;19.33;;
12947;SDS011;6539;49.476;8.484;2023-02-15T03:16:14;34.20;;;18.13;;
12947;SDS011;6539;49.476;8.484;2023-02-15T03:19:04;37.43;;;18.47;;
12947;SDS011;6539;49.476;8.484;2023-02-15T03:21:39;31.43;;;16.73;;
12947;SDS011;6539;49.476;8.484;2023-02-15T03:24:23;34.57;;;18.33;;
12947;SDS011;6539;49.476;8.484;2023-02-15T03:27:01;34.53;;;17.20;;
12947;SDS011;6539;49.476;8.484;2023-02-15T03:29:39;37.37;;;18.87;;
12947;SDS011;6539;49.476;8.484;2023-02-15T03:32:11;36.80;;;19.23;;
12947;SDS011;6539;49.476;8.484;2023-02-15T03:34:40;31.50;;;18.37;;
12947;SDS011;6539;49.476;8.484;2023-02-15T03:40:38;38.80;;;18.57;;
12947;SDS011;6539;49.476;8.484;2023-02-15T03:46:13;33.37;;;17.40;;
12947;SDS011;6539;49.476;8.484;2023-02-15T03:48:55;32.13;;;16.83;;
12947;SDS011;6539;49.476;8.484;2023-02-15T03:51:33;36.90;;;19.17;;
12947;SDS011;6539;49.476;8.484;2023-02-15T03:54:25;31.93;;;18.13;;
12947;SDS011;6539;49.476;8.484;2023-02-15T03:57:23;30.90;;;17.63;;
12947;SDS011;6539;49.476;8.484;2023-02-15T04:05:57;29.10;;;17.20;;
12947;SDS011;6539;49.476;8.484;2023-02-15T04:08:22;27.27;;;17.13;;
12947;SDS011;6539;49.476;8.484;2023-02-15T04:11:08;27.57;;;16.47;;
12947;SDS011;6539;49.476;8.484;2023-02-15T04:13:34;28.77;;;16.97;;
12947;SDS011;6539;49.476;8.484;2023-02-15T04:16:03;26.07;;;16.00;;
12947;SDS011;6539;49.476;8.484;2023-02-15T04:18:34;29.40;;;17.07;;
12947;SDS011;6539;49.476;8.484;2023-02-15T04:21:25;28.67;;;17.43;;
12947;SDS011;6539;49.476;8.484;2023-02-15T04:24:12;29.57;;;16.70;;
12947;SDS011;6539;49.476;8.484;2023-02-15T04:26:58;30.40;;;17.50;;
12947;SDS011;6539;49.476;8.484;2023-02-15T04:29:25;30.87;;;17.50;;
12947;SDS011;6539;49.476;8.484;2023-02-15T04:31:55;31.93;;;17.97;;
12947;SDS011;6539;49.476;8.484;2023-02-15T04:34:22;25.57;;;15.83;;
12947;SDS011;6539;49.476;8.484;2023-02-15T04:36:51;30.67;;;17.00;;
12947;SDS011;6539;49.476;8.484;2023-02-15T04:39:19;29.77;;;16.80;;
12947;SDS011;6539;49.476;8.484;2023-02-15T04:41:45;30.53;;;16.87;;
12947;SDS011;6539;49.476;8.484;2023-02-15T04:44:11;33.63;;;17.33;;
12947;SDS011;6539;49.476;8.484;2023-02-15T04:46:39;29.53;;;18.67;;
12947;SDS011;6539;49.476;8.484;2023-02-15T04:49:07;32.87;;;17.80;;
12947;SDS011;6539;49.476;8.484;2023-02-15T04:51:35;31.00;;;17.03;;
12947;SDS011;6539;49.476;8.484;2023-02-15T04:54:01;35.23;;;17.33;;
12947;SDS011;6539;49.476;8.484;2023-02-15T04:56:30;32.90;;;18.07;;
12947;SDS011;6539;49.476;8.484;2023-02-15T04:58:58;30.97;;;18.13;;
12947;SDS011;6539;49.476;8.484;2023-02-15T05:01:23;30.57;;;17.10;;
12947;SDS011;6539;49.476;8.484;2023-02-15T05:03:49;30.63;;;17.73;;
12947;SDS011;6539;49.476;8.484;2023-02-15T05:06:15;29.03;;;16.93;;
12947;SDS011;6539;49.476;8.484;2023-02-15T05:08:43;32.97;;;18.17;;
12947;SDS011;6539;49.476;8.484;2023-02-15T05:11:09;30.77;;;17.73;;
12947;SDS011;6539;49.476;8.484;2023-02-15T05:13:35;32.10;;;18.23;;
12947;SDS011;6539;49.476;8.484;2023-02-15T05:16:03;28.83;;;17.67;;
12947;SDS011;6539;49.476;8.484;2023-02-15T05:18:29;33.63;;;17.53;;
12947;SDS011;6539;49.476;8.484;2023-02-15T05:20:55;30.67;;;18.70;;
12947;SDS011;6539;49.476;8.484;2023-02-15T05:23:23;30.70;;;17.73;;
12947;SDS011;6539;49.476;8.484;2023-02-15T05:25:50;32.23;;;19.60;;
12947;SDS011;6539;49.476;8.484;2023-02-15T05:28:35;36.13;;;19.27;;
12947;SDS011;6539;49.476;8.484;2023-02-15T05:31:18;38.27;;;19.70;;
12947;SDS011;6539;49.476;8.484;2023-02-15T05:33:44;36.23;;;19.10;;
12947;SDS011;6539;49.476;8.484;2023-02-15T05:36:13;34.73;;;19.20;;
12947;SDS011;6539;49.476;8.484;2023-02-15T05:38:41;35.10;;;18.93;;
12947;SDS011;6539;49.476;8.484;2023-02-15T05:41:07;31.70;;;17.47;;
12947;SDS011;6539;49.476;8.484;2023-02-15T05:43:35;32.53;;;18.73;;
12947;SDS011;6539;49.476;8.484;2023-02-15T05:46:01;33.87;;;19.20;;
12947;SDS011;6539;49.476;8.484;2023-02-15T05:48:33;34.13;;;19.10;;
12947;SDS011;6539;49.476;8.484;2023-02-15T05:51:00;37.57;;;19.37;;
12947;SDS011;6539;49.476;8.484;2023-02-15T05:53:37;34.17;;;19.40;;
12947;SDS011;6539;49.476;8.484;2023-02-15T05:56:09;32.33;;;18.50;;
12947;SDS011;6539;49.476;8.484;2023-02-15T05:58:39;36.97;;;19.67;;
12947;SDS011;6539;49.476;8.484;2023-02-15T06:01:16;39.30;;;19.50;;
12947;SDS011;6539;49.476;8.484;2023-02-15T06:03:45;36.87;;;19.37;;
12947;SDS011;6539;49.476;8.484;2023-02-15T06:06:14;41.27;;;20.13;;
12947;SDS011;6539;49.476;8.484;2023-02-15T06:08:42;33.83;;;19.40;;
12947;SDS011;6539;49.476;8.484;2023-02-15T06:11:08;35.13;;;18.37;;
12947;SDS011;6539;49.476;8.484;2023-02-15T06:13:34;33.77;;;19.27;;
12947;SDS011;6539;49.476;8.484;2023-02-15T06:16:00;29.97;;;17.73;;
12947;SDS011;6539;49.476;8.484;2023-02-15T06:18:26;29.47;;;18.03;;
12947;SDS011;6539;49.476;8.484;2023-02-15T06:20:54;27.03;;;16.40;;
12947;SDS011;6539;49.476;8.484;2023-02-15T06:23:20;28.77;;;17.20;;
12947;SDS011;6539;49.476;8.484;2023-02-15T06:25:46;31.50;;;18.07;;
12947;SDS011;6539;49.476;8.484;2023-02-15T06:28:14;29.13;;;17.20;;
12947;SDS011;6539;49.476;8.484;2023-02-15T06:30:42;30.60;;;16.53;;
12947;SDS011;6539;49.476;8.484;2023-02-15T06:33:08;28.87;;;16.97;;
12947;SDS011;6539;49.476;8.484;2023-02-15T06:35:33;27.30;;;16.40;;
12947;SDS011;6539;49.476;8.484;2023-02-15T06:38:00;30.77;;;18.23;;
12947;SDS011;6539;49.476;8.484;2023-02-15T06:40:30;26.37;;;16.83;;
12947;SDS011;6539;49.476;8.484;2023-02-15T06:42:58;28.40;;;16.37;;
12947;SDS011;6539;49.476;8.484;2023-02-15T06:45:26;26.00;;;15.67;;
12947;SDS011;6539;49.476;8.484;2023-02-15T06:47:56;26.53;;;16.43;;
12947;SDS011;6539;49.476;8.484;2023-02-15T06:50:23;29.07;;;16.13;;
12947;SDS011;6539;49.476;8.484;2023-02-15T06:52:49;30.13;;;19.65;;
12947;SDS011;6539;49.476;8.484;2023-02-15T06:55:21;29.07;;;17.93;;
12947;SDS011;6539;49.476;8.484;2023-02-15T06:57:46;27.27;;;16.67;;
12947;SDS011;6539;49.476;8.484;2023-02-15T07:00:12;26.90;;;16.77;;
12947;SDS011;6539;49.476;8.484;2023-02-15T07:02:39;26.90;;;17.07;;
12947;SDS011;6539;49.476;8.484;2023-02-15T07:05:04;29.67;;;16.77;;
12947;SDS011;6539;49.476;8.484;2023-02-15T07:07:32;26.93;;;15.97;;
12947;SDS011;6539;49.476;8.484;2023-02-15T07:09:58;28.67;;;16.80;;
12947;SDS011;6539;49.476;8.484;2023-02-15T07:12:26;27.03;;;16.77;;
12947;SDS011;6539;49.476;8.484;2023-02-15T07:15:16;30.43;;;16.70;;
12947;SDS011;6539;49.476;8.484;2023-02-15T07:17:45;26.87;;;17.77;;
12947;SDS011;6539;49.476;8.484;2023-02-15T07:20:15;30.37;;;17.93;;
12947;SDS011;6539;49.476;8.484;2023-02-15T07:22:49;26.57;;;16.47;;
12947;SDS011;6539;49.476;8.484;2023-02-15T07:25:17;25.30;;;16.67;;
12947;SDS011;6539;49.476;8.484;2023-02-15T07:27:43;28.43;;;17.10;;
12947;SDS011;6539;49.476;8.484;2023-02-15T07:30:10;27.40;;;16.33;;
12947;SDS011;6539;49.476;8.484;2023-02-15T07:32:39;25.60;;;15.47;;
12947;SDS011;6539;49.476;8.484;2023-02-15T07:35:25;27.10;;;16.80;;
12947;SDS011;6539;49.476;8.484;2023-02-15T07:37:53;24.97;;;15.37;;
12947;SDS011;6539;49.476;8.484;2023-02-15T07:40:22;24.37;;;15.73;;
12947;SDS011;6539;49.476;8.484;2023-02-15T07:42:57;21.23;;;14.40;;
12947;SDS011;6539;49.476;8.484;2023-02-15T07:45:23;24.23;;;14.83;;
12947;SDS011;6539;49.476;8.484;2023-02-15T07:47:51;24.30;;;15.53;;
12947;SDS011;6539;49.476;8.484;2023-02-15T07:50:17;25.63;;;16.37;;
12947;SDS011;6539;49.476;8.484;2023-02-15T07:52:45;28.03;;;16.77;;
12947;SDS011;6539;49.476;8.484;2023-02-15T07:55:13;24.00;;;16.57;;
12947;SDS011;6539;49.476;8.484;2023-02-15T07:57:42;30.17;;;15.83;;
12947;SDS011;6539;49.476;8.484;2023-02-15T08:00:10;25.80;;;15.37;;
12947;SDS011;6539;49.476;8.484;2023-02-15T08:02:42;26.73;;;15.90;;
12947;SDS011;6539;49.476;8.484;2023-02-15T08:05:37;33.80;;;19.63;;
12947;SDS011;6539;49.476;8.484;2023-02-15T08:08:10;27.80;;;16.27;;
12947;SDS011;6539;49.476;8.484;2023-02-15T08:10:57;25.50;;;16.10;;
12947;SDS011;6539;49.476;8.484;2023-02-15T08:13:59;24.67;;;15.93;;
12947;SDS011;6539;49.476;8.484;2023-02-15T08:19:22;27.70;;;15.93;;
12947;SDS011;6539;49.476;8.484;2023-02-15T08:21:53;30.30;;;16.90;;
12947;SDS011;6539;49.476;8.484;2023-02-15T08:24:33;25.90;;;16.73;;
12947;SDS011;6539;49.476;8.484;2023-02-15T08:27:07;24.27;;;15.27;;
12947;SDS011;6539;49.476;8.484;2023-02-15T08:29:36;28.27;;;17.10;;
12947;SDS011;6539;49.476;8.484;2023-02-15T08:32:04;26.27;;;16.77;;
12947;SDS011;6539;49.476;8.484;2023-02-15T08:34:38;26.33;;;16.43;;
12947;SDS011;6539;49.476;8.484;2023-02-15T08:37:06;26.40;;;16.40;;
12947;SDS011;6539;49.476;8.484;2023-02-15T08:39:34;26.50;;;16.13;;
12947;SDS011;6539;49.476;8.484;2023-02-15T08:42:00;27.87;;;15.53;;
12947;SDS011;6539;49.476;8.484;2023-02-15T08:44:29;28.50;;;16.27;;
12947;SDS011;6539;49.476;8.484;2023-02-15T08:46:57;26.07;;;15.70;;
12947;SDS011;6539;49.476;8.484;2023-02-15T08:49:28;27.27;;;16.87;;
12947;SDS011;6539;49.476;8.484;2023-02-15T08:51:56;26.90;;;16.17;;
12947;SDS011;6539;49.476;8.484;2023-02-15T08:54:22;29.10;;;16.67;;
12947;SDS011;6539;49.476;8.484;2023-02-15T08:56:48;27.80;;;17.83;;
12947;SDS011;6539;49.476;8.484;2023-02-15T08:59:15;27.30;;;16.90;;
12947;SDS011;6539;49.476;8.484;2023-02-15T09:01:47;26.27;;;15.97;;
12947;SDS011;6539;49.476;8.484;2023-02-15T09:04:20;27.13;;;15.77;;
12947;SDS011;6539;49.476;8.484;2023-02-15T09:06:48;32.83;;;19.13;;
12947;SDS011;6539;49.476;8.484;2023-02-15T09:09:18;26.17;;;16.97;;
12947;SDS011;6539;49.476;8.484;2023-02-15T09:11:45;24.90;;;16.80;;
12947;SDS011;6539;49.476;8.484;2023-02-15T09:14:19;30.13;;;19.10;;
12947;SDS011;6539;49.476;8.484;2023-02-15T09:16:51;28.93;;;17.50;;
12947;SDS011;6539;49.476;8.484;2023-02-15T09:19:18;31.70;;;17.37;;
12947;SDS011;6539;49.476;8.484;2023-02-15T09:21:47;26.23;;;16.67;;
12947;SDS011;6539;49.476;8.484;2023-02-15T09:24:14;29.83;;;17.33;;
12947;SDS011;6539;49.476;8.484;2023-02-15T09:26:45;28.30;;;17.30;;
12947;SDS011;6539;49.476;8.484;2023-02-15T09:29:13;27.77;;;16.80;;
12947;SDS011;6539;49.476;8.484;2023-02-15T09:31:41;29.13;;;17.00;;
12947;SDS011;6539;49.476;8.484;2023-02-15T09:34:14;25.93;;;15.30;;
12947;SDS011;6539;49.476;8.484;2023-02-15T09:36:42;25.80;;;17.27;;
12947;SDS011;6539;49.476;8.484;2023-02-15T10:06:13;25.07;;;15.50;;
12947;SDS011;6539;49.476;8.484;2023-02-15T10:26:21;30.07;;;19.43;;
12947;SDS011;6539;49.476;8.484;2023-02-15T10:32:16;30.90;;;19.93;;
12947;SDS011;6539;49.476;8.484;2023-02-15T10:34:58;35.43;;;20.57;;
12947;SDS011;6539;49.476;8.484;2023-02-15T10:40:33;34.57;;;21.40;;
12947;SDS011;6539;49.476;8.484;2023-02-15T10:46:10;33.10;;;21.67;;
12947;SDS011;6539;49.476;8.484;2023-02-15T10:55:49;34.83;;;21.73;;
12947;SDS011;6539;49.476;8.484;2023-02-15T10:58:38;39.37;;;23.10;;
12947;SDS011;6539;49.476;8.484;2023-02-15T11:06:46;38.47;;;23.10;;
12947;SDS011;6539;49.476;8.484;2023-02-15T11:09:25;37.17;;;22.57;;
12947;SDS011;6539;49.476;8.484;2023-02-15T11:12:08;35.63;;;22.17;;
12947;SDS011;6539;49.476;8.484;2023-02-15T11:17:28;36.37;;;22.63;;
12947;SDS011;6539;49.476;8.484;2023-02-15T11:20:23;39.80;;;23.40;;
12947;SDS011;6539;49.476;8.484;2023-02-15T11:23:17;37.90;;;23.77;;
12947;SDS011;6539;49.476;8.484;2023-02-15T11:26:26;37.60;;;23.77;;
12947;SDS011;6539;49.476;8.484;2023-02-15T11:32:03;36.73;;;23.43;;
12947;SDS011;6539;49.476;8.484;2023-02-15T11:34:54;38.17;;;23.10;;
12947;SDS011;6539;49.476;8.484;2023-02-15T11:37:46;35.37;;;23.23;;
12947;SDS011;6539;49.476;8.484;2023-02-15T11:40:20;34.57;;;22.83;;
12947;SDS011;6539;49.476;8.484;2023-02-15T11:42:54;34.83;;;23.17;;
12947;SDS011;6539;49.476;8.484;2023-02-15T11:45:29;37.07;;;22.63;;
12947;SDS011;6539;49.476;8.484;2023-02-15T11:47:59;35.30;;;23.33;;
12947;SDS011;6539;49.476;8.484;2023-02-15T11:50:31;35.93;;;23.10;;
12947;SDS011;6539;49.476;8.484;2023-02-15T11:53:11;38.70;;;22.33;;
12947;SDS011;6539;49.476;8.484;2023-02-15T11:55:43;39.17;;;23.10;;
12947;SDS011;6539;49.476;8.484;2023-02-15T12:04:29;39.53;;;25.73;;
12947;SDS011;6539;49.476;8.484;2023-02-15T12:10:15;39.43;;;24.00;;
12947;SDS011;6539;49.476;8.484;2023-02-15T12:15:44;36.00;;;23.37;;
12947;SDS011;6539;49.476;8.484;2023-02-15T12:21:39;36.73;;;24.07;;
12947;SDS011;6539;49.476;8.484;2023-02-15T12:24:24;39.13;;;24.80;;
12947;SDS011;6539;49.476;8.484;2023-02-15T12:27:44;40.90;;;24.80;;
12947;SDS011;6539;49.476;8.484;2023-02-15T12:29:55;33.97;;;23.13;;
12947;SDS011;6539;49.476;8.484;2023-02-15T12:32:24;35.73;;;24.50;;
12947;SDS011;6539;49.476;8.484;2023-02-15T12:35:14;35.90;;;23.70;;
12947;SDS011;6539;49.476;8.484;2023-02-15T12:38:19;41.07;;;25.87;;
12947;SDS011;6539;49.476;8.484;2023-02-15T12:40:45;39.40;;;25.27;;
12947;SDS011;6539;49.476;8.484;2023-02-15T12:43:32;39.93;;;25.07;;
12947;SDS011;6539;49.476;8.484;2023-02-15T12:46:21;39.20;;;25.50;;
12947;SDS011;6539;49.476;8.484;2023-02-15T12:49:06;39.67;;;24.23;;
12947;SDS011;6539;49.476;8.484;2023-02-15T12:51:42;38.93;;;24.10;;
12947;SDS011;6539;49.476;8.484;2023-02-15T12:54:29;42.30;;;25.90;;
12947;SDS011;6539;49.476;8.484;2023-02-15T12:56:58;38.87;;;24.93;;
12947;SDS011;6539;49.476;8.484;2023-02-15T12:59:24;40.80;;;26.07;;
12947;SDS011;6539;49.476;8.484;2023-02-15T13:01:53;36.03;;;24.50;;
12947;SDS011;6539;49.476;8.484;2023-02-15T13:06:53;39.00;;;25.47;;
12947;SDS011;6539;49.476;8.484;2023-02-15T13:09:35;37.77;;;24.53;;
12947;SDS011;6539;49.476;8.484;2023-02-15T13:12:23;42.63;;;26.30;;
12947;SDS011;6539;49.476;8.484;2023-02-15T13:14:54;41.17;;;26.17;;
12947;SDS011;6539;49.476;8.484;2023-02-15T13:17:25;43.47;;;27.13;;
12947;SDS011;6539;49.476;8.484;2023-02-15T13:20:32;40.67;;;25.10;;
12947;SDS011;6539;49.476;8.484;2023-02-15T13:23:04;43.33;;;29.30;;
12947;SDS011;6539;49.476;8.484;2023-02-15T13:25:57;38.67;;;26.77;;
12947;SDS011;6539;49.476;8.484;2023-02-15T13:28:42;36.07;;;25.73;;
12947;SDS011;6539;49.476;8.484;2023-02-15T13:31:20;45.37;;;28.83;;
12947;SDS011;6539;49.476;8.484;2023-02-15T13:34:15;38.20;;;26.70;;
12947;SDS011;6539;49.476;8.484;2023-02-15T13:39:34;35.33;;;23.93;;
12947;SDS011;6539;49.476;8.484;2023-02-15T13:51:35;40.57;;;25.47;;
12947;SDS011;6539;49.476;8.484;2023-02-15T13:55:02;41.80;;;26.07;;
12947;SDS011;6539;49.476;8.484;2023-02-15T14:22:43;42.33;;;25.33;;
12947;SDS011;6539;49.476;8.484;2023-02-15T14:25:55;42.03;;;26.10;;
12947;SDS011;6539;49.476;8.484;2023-02-15T14:31:41;39.33;;;25.50;;
12947;SDS011;6539;49.476;8.484;2023-02-15T14:34:24;40.30;;;24.47;;
12947;SDS011;6539;49.476;8.484;2023-02-15T14:37:08;36.67;;;23.77;;
12947;SDS011;6539;49.476;8.484;2023-02-15T14:43:01;38.30;;;23.93;;
12947;SDS011;6539;49.476;8.484;2023-02-15T14:45:49;38.57;;;23.77;;
12947;SDS011;6539;49.476;8.484;2023-02-15T14:48:45;38.53;;;25.83;;
12947;SDS011;6539;49.476;8.484;2023-02-15T14:59:25;37.17;;;25.07;;
12947;SDS011;6539;49.476;8.484;2023-02-15T15:02:27;38.30;;;25.77;;
12947;SDS011;6539;49.476;8.484;2023-02-15T15:05:34;39.23;;;25.83;;
12947;SDS011;6539;49.476;8.484;2023-02-15T15:11:38;33.50;;;23.13;;
12947;SDS011;6539;49.476;8.484;2023-02-15T15:14:07;34.60;;;24.20;;
12947;SDS011;6539;49.476;8.484;2023-02-15T15:16:59;38.67;;;25.00;;
12947;SDS011;6539;49.476;8.484;2023-02-15T15:19:56;37.97;;;24.57;;
12947;SDS011;6539;49.476;8.484;2023-02-15T15:22:29;38.23;;;26.17;;
12947;SDS011;6539;49.476;8.484;2023-02-15T15:43:54;36.87;;;25.10;;
12947;SDS011;6539;49.476;8.484;2023-02-15T15:49:55;38.37;;;25.50;;
12947;SDS011;6539;49.476;8.484;2023-02-15T15:52:26;37.83;;;25.53;;
12947;SDS011;6539;49.476;8.484;2023-02-15T15:55:04;41.17;;;25.17;;
12947;SDS011;6539;49.476;8.484;2023-02-15T15:57:42;44.23;;;27.57;;
12947;SDS011;6539;49.476;8.484;2023-02-15T16:03:23;41.17;;;27.90;;
12947;SDS011;6539;49.476;8.484;2023-02-15T16:05:56;43.40;;;27.73;;
12947;SDS011;6539;49.476;8.484;2023-02-15T16:08:46;46.13;;;27.07;;
12947;SDS011;6539;49.476;8.484;2023-02-15T16:11:14;43.93;;;28.33;;
12947;SDS011;6539;49.476;8.484;2023-02-15T16:13:49;41.43;;;28.13;;
12947;SDS011;6539;49.476;8.484;2023-02-15T16:16:25;42.43;;;28.73;;
12947;SDS011;6539;49.476;8.484;2023-02-15T16:18:57;47.57;;;29.00;;
12947;SDS011;6539;49.476;8.484;2023-02-15T16:21:28;45.50;;;28.03;;
12947;SDS011;6539;49.476;8.484;2023-02-15T16:29:33;48.23;;;29.90;;
12947;SDS011;6539;49.476;8.484;2023-02-15T16:34:30;51.67;;;29.93;;
12947;SDS011;6539;49.476;8.484;2023-02-15T16:40:02;51.30;;;30.63;;
12947;SDS011;6539;49.476;8.484;2023-02-15T16:42:28;52.07;;;32.53;;
12947;SDS011;6539;49.476;8.484;2023-02-15T16:44:55;61.33;;;37.83;;
12947;SDS011;6539;49.476;8.484;2023-02-15T16:47:33;52.27;;;30.77;;
12947;SDS011;6539;49.476;8.484;2023-02-15T16:50:19;57.60;;;33.47;;
12947;SDS011;6539;49.476;8.484;2023-02-15T16:53:14;48.63;;;30.90;;
12947;SDS011;6539;49.476;8.484;2023-02-15T16:55:48;49.13;;;30.13;;
12947;SDS011;6539;49.476;8.484;2023-02-15T16:58:40;52.70;;;30.07;;
12947;SDS011;6539;49.476;8.484;2023-02-15T17:01:13;49.90;;;30.73;;
12947;SDS011;6539;49.476;8.484;2023-02-15T17:03:40;46.70;;;29.50;;
12947;SDS011;6539;49.476;8.484;2023-02-15T17:06:23;50.17;;;30.33;;
12947;SDS011;6539;49.476;8.484;2023-02-15T17:09:02;47.40;;;28.70;;
12947;SDS011;6539;49.476;8.484;2023-02-15T17:11:47;51.87;;;30.90;;
12947;SDS011;6539;49.476;8.484;2023-02-15T17:14:13;50.23;;;28.83;;
12947;SDS011;6539;49.476;8.484;2023-02-15T17:19:27;50.80;;;29.63;;
12947;SDS011;6539;49.476;8.484;2023-02-15T17:21:58;50.87;;;28.53;;
12947;SDS011;6539;49.476;8.484;2023-02-15T17:24:41;45.47;;;28.33;;
12947;SDS011;6539;49.476;8.484;2023-02-15T17:27:20;44.37;;;27.67;;
12947;SDS011;6539;49.476;8.484;2023-02-15T17:29:57;48.93;;;28.47;;
12947;SDS011;6539;49.476;8.484;2023-02-15T17:32:27;46.23;;;27.23;;
12947;SDS011;6539;49.476;8.484;2023-02-15T17:35:18;46.83;;;28.07;;
12947;SDS011;6539;49.476;8.484;2023-02-15T17:37:49;45.97;;;26.70;;
12947;SDS011;6539;49.476;8.484;2023-02-15T17:40:30;48.73;;;27.70;;
12947;SDS011;6539;49.476;8.484;2023-02-15T17:42:59;45.73;;;27.13;;
12947;SDS011;6539;49.476;8.484;2023-02-15T17:45:31;44.37;;;28.33;;
12947;SDS011;6539;49.476;8.484;2023-02-15T17:48:04;46.40;;;27.60;;
12947;SDS011;6539;49.476;8.484;2023-02-15T17:50:42;44.43;;;27.67;;
12947;SDS011;6539;49.476;8.484;2023-02-15T17:53:08;49.80;;;29.43;;
12947;SDS011;6539;49.476;8.484;2023-02-15T17:55:45;48.40;;;30.30;;
12947;SDS011;6539;49.476;8.484;2023-02-15T17:58:14;45.47;;;28.87;;
12947;SDS011;6539;49.476;8.484;2023-02-15T18:01:06;48.43;;;28.20;;
12947;SDS011;6539;49.476;8.484;2023-02-15T18:04:19;43.87;;;27.80;;
12947;SDS011;6539;49.476;8.484;2023-02-15T18:14:45;45.73;;;27.40;;
12947;SDS011;6539;49.476;8.484;2023-02-15T18:18:12;45.63;;;28.07;;
12947;SDS011;6539;49.476;8.484;2023-02-15T18:20:38;44.67;;;27.30;;
12947;SDS011;6539;49.476;8.484;2023-02-15T18:23:07;44.37;;;26.47;;
12947;SDS011;6539;49.476;8.484;2023-02-15T18:25:38;42.10;;;27.63;;
12947;SDS011;6539;49.476;8.484;2023-02-15T18:28:07;44.40;;;28.03;;
12947;SDS011;6539;49.476;8.484;2023-02-15T18:30:41;45.43;;;26.97;;
12947;SDS011;6539;49.476;8.484;2023-02-15T18:33:19;48.00;;;29.17;;
12947;SDS011;6539;49.476;8.484;2023-02-15T18:35:59;48.00;;;27.63;;
12947;SDS011;6539;49.476;8.484;2023-02-15T18:38:30;48.23;;;28.20;;
12947;SDS011;6539;49.476;8.484;2023-02-15T18:40:59;47.23;;;27.90;;
12947;SDS011;6539;49.476;8.484;2023-02-15T18:43:31;46.53;;;28.50;;
12947;SDS011;6539;49.476;8.484;2023-02-15T18:46:00;46.50;;;28.70;;
12947;SDS011;6539;49.476;8.484;2023-02-15T18:48:26;45.87;;;28.10;;
12947;SDS011;6539;49.476;8.484;2023-02-15T18:50:54;50.43;;;30.27;;
12947;SDS011;6539;49.476;8.484;2023-02-15T18:53:20;43.43;;;27.70;;
12947;SDS011;6539;49.476;8.484;2023-02-15T18:55:48;47.13;;;28.47;;
12947;SDS011;6539;49.476;8.484;2023-02-15T18:58:18;46.60;;;28.17;;
12947;SDS011;6539;49.476;8.484;2023-02-15T19:00:47;47.17;;;28.13;;
12947;SDS011;6539;49.476;8.484;2023-02-15T19:03:14;43.73;;;27.87;;
12947;SDS011;6539;49.476;8.484;2023-02-15T19:05:43;48.97;;;28.37;;